This is the latest recevied weather packets stored in our database for station/object WK7G. If no packets are shown the sender has not sent any weather packets the latest 10 day(s).
| Time | Temp. | Humidity | Pressure | Rain* | Wind** | Luminosity | Snow |
|---|---|---|---|---|---|---|---|
| 1777998303 | 10° C | 50% | 1004.8 hPa | 0 mm | - | 797 W/m² | - |
| 1777998000 | 10° C | 52% | 1004.4 hPa | 0 mm | - | 765 W/m² | - |
| 1777997696 | 10° C | 55% | 1004.3 hPa | 0 mm | - | 757 W/m² | - |
| 1777997394 | 10° C | 55% | 1004.5 hPa | 0 mm | - | 700 W/m² | - |
| 1777997092 | 9.44° C | 55% | 1004.6 hPa | 0 mm | - | 701 W/m² | - |
| 1777996788 | 9.44° C | 55% | 1004.5 hPa | 0 mm | - | 682 W/m² | - |
| 1777996485 | 10° C | 54% | 1004.6 hPa | 0 mm | - | 689 W/m² | - |
| 1777996182 | 9.44° C | 57% | 1004.6 hPa | 0 mm | - | 640 W/m² | - |
| 1777995878 | 8.89° C | 57% | 1005 hPa | 0 mm | - | 616 W/m² | - |
| 1777995574 | 8.89° C | 59% | 1005 hPa | 0 mm | - | 542 W/m² | - |
| 1777995272 | 8.33° C | 60% | 1004.8 hPa | 0 mm | - | 528 W/m² | - |
| 1777994968 | 8.89° C | 58% | 1004.8 hPa | 0 mm | - | 499 W/m² | - |
| 1777994666 | 8.33° C | 57% | 1005 hPa | 0 mm | - | 500 W/m² | - |
| 1777994366 | 8.33° C | 57% | 1004.8 hPa | 0 mm | - | 454 W/m² | - |
| 1777994062 | 8.89° C | 57% | 1005 hPa | 0 mm | - | 447 W/m² | - |
| 1777993760 | 8.33° C | 57% | 1005.1 hPa | 0 mm | - | 428 W/m² | - |
| 1777993457 | 7.78° C | 59% | 1005 hPa | 0 mm | - | 405 W/m² | - |
| 1777993156 | 8.33° C | 57% | 1004.9 hPa | 0 mm | - | 376 W/m² | - |
| 1777992854 | 8.33° C | 56% | 1005 hPa | 0 mm | - | 367 W/m² | - |
| 1777992552 | 7.78° C | 58% | 1005 hPa | 0 mm | - | 354 W/m² | - |
| 1777992250 | 7.78° C | 57% | 1005.1 hPa | 0 mm | - | 336 W/m² | - |
| 1777991947 | 6.67° C | 60% | 1005 hPa | 0 mm | - | 321 W/m² | - |
| 1777991645 | 6.67° C | 59% | 1005.1 hPa | 0 mm | - | 294 W/m² | - |
| 1777991341 | 6.67° C | 60% | 1005.2 hPa | 0 mm | - | 242 W/m² | - |
| 1777991039 | 6.67° C | 61% | 1005.2 hPa | 0 mm | - | 270 W/m² | - |
* Rain latest hour (hover to see other rain measurements)
** Current wind speed in m/s (hover to see current wind gust speed)